Time;durP1;ratioP1;P1;durP2;ratioP2;P2;SDS_P1;SDS_P2;PMS_P1;PMS_P2;Temp;Humidity;BMP_temperature;BMP_pressure;BME280_temperature;BME280_humidity;BME280_pressure;Samples;Min_cycle;Max_cycle;Signal;HPM_P1;HPM_P2
2023/04/02 00:01:52;;;;;;;5.80;3.65;;;;;;;;;;7375547;19;20485;-81
2023/04/02 00:04:21;;;;;;;5.83;3.50;;;;;;;;;;7368696;19;20104;-80
2023/04/02 00:06:48;;;;;;;4.72;3.00;;;;;;;;;;7364962;19;20275;-78
2023/04/02 00:09:13;;;;;;;5.78;3.75;;;;;;;;;;7345775;19;19999;-82
2023/04/02 00:11:43;;;;;;;5.60;3.80;;;;;;;;;;7359975;19;20297;-76
2023/04/02 00:14:16;;;;;;;5.68;3.63;;;;;;;;;;7368151;19;20531;-81
2023/04/02 00:16:42;;;;;;;6.90;3.55;;;;;;;;;;7346160;19;20006;-78
2023/04/02 00:19:11;;;;;;;6.43;4.03;;;;;;;;;;7365350;19;20367;-79
2023/04/02 00:21:37;;;;;;;6.50;3.92;;;;;;;;;;7367860;19;20135;-78
2023/04/02 00:24:09;;;;;;;5.88;3.95;;;;;;;;;;7370235;19;20103;-79
2023/04/02 00:26:36;;;;;;;5.63;3.58;;;;;;;;;;7374558;19;20435;-77
2023/04/02 00:29:02;;;;;;;6.65;4.20;;;;;;;;;;7376099;19;19998;-79
2023/04/02 00:31:28;;;;;;;6.20;4.18;;;;;;;;;;7373782;19;20259;-79
2023/04/02 00:33:54;;;;;;;6.07;4.05;;;;;;;;;;7372736;19;20017;-77
2023/04/02 00:36:20;;;;;;;6.15;4.30;;;;;;;;;;7360370;19;19998;-77
2023/04/02 00:38:46;;;;;;;6.28;4.47;;;;;;;;;;7375315;19;20422;-75
2023/04/02 00:41:16;;;;;;;6.10;4.47;;;;;;;;;;7371438;19;20055;-79
2023/04/02 00:43:45;;;;;;;6.22;4.20;;;;;;;;;;7373338;19;20001;-77
2023/04/02 00:46:13;;;;;;;6.70;4.13;;;;;;;;;;7375098;19;19994;-80
2023/04/02 00:48:41;;;;;;;5.80;3.75;;;;;;;;;;7377186;19;20025;-76
2023/04/02 00:51:21;;;;;;;6.20;4.07;;;;;;;;;;7368352;19;20410;-78
2023/04/02 00:53:47;;;;;;;6.43;4.60;;;;;;;;;;7375419;19;19995;-77
2023/04/02 00:56:24;;;;;;;6.15;4.43;;;;;;;;;;7373899;19;20021;-79
2023/04/02 00:58:51;;;;;;;6.47;3.80;;;;;;;;;;7375896;19;20297;-76
2023/04/02 01:01:17;;;;;;;6.43;4.43;;;;;;;;;;7370668;19;19998;-77
2023/04/02 01:03:52;;;;;;;7.22;4.30;;;;;;;;;;7372817;19;20098;-76
2023/04/02 01:06:18;;;;;;;7.75;4.55;;;;;;;;;;7368693;19;19999;-79
2023/04/02 01:08:49;;;;;;;7.20;4.30;;;;;;;;;;7374821;19;20007;-78
2023/04/02 01:11:17;;;;;;;6.53;4.63;;;;;;;;;;7366870;19;19998;-79
2023/04/02 01:13:54;;;;;;;7.82;5.18;;;;;;;;;;7360171;19;20003;-79
2023/04/02 01:16:29;;;;;;;8.00;5.07;;;;;;;;;;7359638;19;20002;-77
2023/04/02 01:19:12;;;;;;;6.68;4.60;;;;;;;;;;7361279;19;20002;-78
2023/04/02 01:21:51;;;;;;;6.60;4.75;;;;;;;;;;7359468;19;20009;-80
2023/04/02 01:24:17;;;;;;;6.65;4.88;;;;;;;;;;7359010;19;20014;-78
2023/04/02 01:26:48;;;;;;;6.43;4.35;;;;;;;;;;7360615;19;20006;-81
2023/04/02 01:29:29;;;;;;;6.97;4.85;;;;;;;;;;7360266;19;20462;-78
2023/04/02 01:31:56;;;;;;;6.50;4.50;;;;;;;;;;7361808;19;20376;-78
2023/04/02 01:34:22;;;;;;;6.50;4.18;;;;;;;;;;7356677;19;20457;-80
2023/04/02 01:37:06;;;;;;;6.13;3.92;;;;;;;;;;7315141;19;20425;-82
2023/04/02 01:39:41;;;;;;;5.88;3.65;;;;;;;;;;7307898;19;20010;-81
2023/04/02 01:42:12;;;;;;;5.90;3.22;;;;;;;;;;7307716;19;20391;-80
2023/04/02 01:44:40;;;;;;;6.78;3.70;;;;;;;;;;7308608;19;20074;-78
2023/04/02 01:47:09;;;;;;;6.35;3.53;;;;;;;;;;7306253;19;20483;-80
2023/04/02 01:49:34;;;;;;;7.55;3.30;;;;;;;;;;7305798;19;20368;-82
2023/04/02 01:52:00;;;;;;;7.65;3.90;;;;;;;;;;7304122;19;20006;-83
2023/04/02 01:54:27;;;;;;;6.43;4.05;;;;;;;;;;7305216;19;20114;-78
2023/04/02 01:56:52;;;;;;;7.72;4.07;;;;;;;;;;7306190;19;20025;-82
2023/04/02 01:59:20;;;;;;;6.65;4.25;;;;;;;;;;7309250;19;20007;-82
2023/04/02 02:01:59;;;;;;;7.63;4.40;;;;;;;;;;7304753;19;20012;-79
2023/04/02 02:04:24;;;;;;;6.55;4.35;;;;;;;;;;7309388;19;20461;-80
2023/04/02 02:06:50;;;;;;;6.57;3.88;;;;;;;;;;7304066;19;20032;-83
2023/04/02 02:09:24;;;;;;;6.50;4.18;;;;;;;;;;7305333;19;20005;-83
2023/04/02 02:11:49;;;;;;;5.57;3.33;;;;;;;;;;7305915;19;20690;-82
2023/04/02 02:14:16;;;;;;;7.50;4.00;;;;;;;;;;7311432;19;20010;-82
2023/04/02 02:16:42;;;;;;;6.47;3.65;;;;;;;;;;7309179;19;20002;-80
2023/04/02 02:19:27;;;;;;;5.82;3.60;;;;;;;;;;7307360;19;19995;-83
2023/04/02 02:21:55;;;;;;;6.07;3.40;;;;;;;;;;7305268;19;20346;-81
2023/04/02 02:24:20;;;;;;;5.35;3.15;;;;;;;;;;7309652;19;20002;-82
2023/04/02 02:26:47;;;;;;;5.80;3.13;;;;;;;;;;7307647;19;20422;-82
2023/04/02 02:29:15;;;;;;;6.25;3.13;;;;;;;;;;7307282;19;21334;-82
2023/04/02 02:31:43;;;;;;;5.10;2.72;;;;;;;;;;7307493;19;20648;-81
2023/04/02 02:34:13;;;;;;;5.25;2.60;;;;;;;;;;7303694;19;20588;-82
2023/04/02 02:37:02;;;;;;;4.10;2.15;;;;;;;;;;7334706;19;20022;-78
2023/04/02 02:39:36;;;;;;;4.15;2.00;;;;;;;;;;7354522;19;20071;-77
2023/04/02 02:42:04;;;;;;;4.28;2.15;;;;;;;;;;7358646;19;20077;-79
2023/04/02 02:44:35;;;;;;;4.25;2.15;;;;;;;;;;7358914;19;20025;-76
2023/04/02 02:47:01;;;;;;;4.13;1.77;;;;;;;;;;7356116;19;20142;-79
2023/04/02 02:49:29;;;;;;;4.25;1.88;;;;;;;;;;7356066;19;20006;-77
2023/04/02 02:51:57;;;;;;;3.75;1.60;;;;;;;;;;7355876;19;20035;-76
2023/04/02 02:54:22;;;;;;;3.25;1.38;;;;;;;;;;7354833;19;20095;-83
2023/04/02 02:56:54;;;;;;;4.78;1.80;;;;;;;;;;7358705;19;20061;-76
2023/04/02 02:59:20;;;;;;;3.42;1.58;;;;;;;;;;7353729;19;20031;-81
2023/04/02 03:01:46;;;;;;;3.50;1.50;;;;;;;;;;7355951;19;20026;-80
2023/04/02 03:04:12;;;;;;;4.68;1.40;;;;;;;;;;7357213;19;20030;-76
2023/04/02 03:06:39;;;;;;;3.47;1.50;;;;;;;;;;7347210;19;20535;-77
2023/04/02 03:09:19;;;;;;;3.22;1.42;;;;;;;;;;7357108;19;20066;-77
2023/04/02 03:11:53;;;;;;;3.35;1.40;;;;;;;;;;7352872;19;19998;-78
2023/04/02 03:14:31;;;;;;;2.75;1.10;;;;;;;;;;7354722;19;20103;-79
2023/04/02 03:17:04;;;;;;;5.50;1.30;;;;;;;;;;7354940;19;20443;-79
2023/04/02 03:19:32;;;;;;;2.95;1.30;;;;;;;;;;7351641;19;20127;-78
2023/04/02 03:22:13;;;;;;;2.92;1.13;;;;;;;;;;7352440;19;20006;-81
2023/04/02 03:24:53;;;;;;;5.13;1.27;;;;;;;;;;7355797;19;20027;-77
2023/04/02 03:27:24;;;;;;;2.85;1.38;;;;;;;;;;7353701;19;20126;-80
2023/04/02 03:30:05;;;;;;;3.53;1.58;;;;;;;;;;7354421;19;20235;-80
2023/04/02 03:32:32;;;;;;;3.33;1.30;;;;;;;;;;7354953;19;19998;-75
2023/04/02 03:35:03;;;;;;;3.90;1.48;;;;;;;;;;7352953;19;19994;-76
2023/04/02 03:37:40;;;;;;;3.00;1.30;;;;;;;;;;7353297;19;20442;-78
2023/04/02 03:40:17;;;;;;;3.42;1.60;;;;;;;;;;7353147;19;20066;-77
2023/04/02 03:43:02;;;;;;;3.10;1.48;;;;;;;;;;7354339;19;20063;-80
2023/04/02 03:45:28;;;;;;;3.22;1.58;;;;;;;;;;7351912;19;20030;-75
2023/04/02 03:48:04;;;;;;;3.47;1.60;;;;;;;;;;7356368;19;20328;-77
2023/04/02 03:50:33;;;;;;;3.80;1.67;;;;;;;;;;7349435;19;20005;-75
2023/04/02 03:52:59;;;;;;;3.60;1.50;;;;;;;;;;7353470;19;19999;-77
2023/04/02 03:55:27;;;;;;;5.13;1.98;;;;;;;;;;7352890;19;20300;-78
2023/04/02 03:58:00;;;;;;;3.75;1.60;;;;;;;;;;7351935;19;20022;-77
2023/04/02 04:00:34;;;;;;;3.97;2.08;;;;;;;;;;7352218;19;20061;-78
2023/04/02 04:03:14;;;;;;;4.40;2.17;;;;;;;;;;7351423;19;20431;-79
2023/04/02 04:05:47;;;;;;;4.43;1.98;;;;;;;;;;7348970;19;19998;-77
2023/04/02 04:08:29;;;;;;;4.32;1.75;;;;;;;;;;7353700;19;20018;-77
2023/04/02 04:11:00;;;;;;;3.30;1.63;;;;;;;;;;7353211;19;20138;-80
2023/04/02 04:13:30;;;;;;;5.10;2.00;;;;;;;;;;7350230;19;20666;-78
2023/04/02 04:16:03;;;;;;;4.00;1.88;;;;;;;;;;7354751;19;20038;-81
2023/04/02 04:18:33;;;;;;;3.80;1.70;;;;;;;;;;7350848;19;20455;-77
2023/04/02 04:21:00;;;;;;;3.08;1.40;;;;;;;;;;7350725;19;20015;-81
2023/04/02 04:23:29;;;;;;;3.22;1.48;;;;;;;;;;7353644;19;20015;-78
2023/04/02 04:26:08;;;;;;;3.65;1.70;;;;;;;;;;7352311;19;20599;-80
2023/04/02 04:28:45;;;;;;;4.68;1.50;;;;;;;;;;7350542;19;20533;-79
2023/04/02 04:31:25;;;;;;;3.25;1.63;;;;;;;;;;7353667;19;19998;-78
2023/04/02 04:33:53;;;;;;;3.50;1.58;;;;;;;;;;7353240;19;20576;-80
2023/04/02 04:36:27;;;;;;;4.00;1.70;;;;;;;;;;7336850;19;20189;-77
2023/04/02 04:38:54;;;;;;;4.47;1.88;;;;;;;;;;7354015;19;20006;-78
2023/04/02 04:41:25;;;;;;;4.82;1.70;;;;;;;;;;7350143;19;19994;-79
2023/04/02 04:43:50;;;;;;;3.53;1.63;;;;;;;;;;7352681;19;20010;-77
2023/04/02 04:46:26;;;;;;;3.78;2.08;;;;;;;;;;7355002;19;20482;-79
2023/04/02 04:48:58;;;;;;;4.85;2.22;;;;;;;;;;7352762;19;20439;-77
2023/04/02 04:51:25;;;;;;;4.80;2.30;;;;;;;;;;7348192;19;20032;-80
2023/04/02 04:53:52;;;;;;;4.30;2.15;;;;;;;;;;7351625;19;20002;-81
2023/04/02 04:56:19;;;;;;;5.57;2.22;;;;;;;;;;7353949;19;20059;-79
2023/04/02 04:58:50;;;;;;;5.65;2.28;;;;;;;;;;7353430;19;20002;-79
2023/04/02 05:01:27;;;;;;;6.38;2.40;;;;;;;;;;7351900;19;20027;-78
2023/04/02 05:03:55;;;;;;;3.90;2.00;;;;;;;;;;7351110;19;19999;-78
2023/04/02 05:06:43;;;;;;;3.80;1.85;;;;;;;;;;7343275;19;20071;-80
2023/04/02 05:09:27;;;;;;;6.38;2.40;;;;;;;;;;7348519;19;20070;-79
2023/04/02 05:12:05;;;;;;;5.55;2.10;;;;;;;;;;7359087;19;20023;-77
2023/04/02 05:14:34;;;;;;;4.10;2.00;;;;;;;;;;7358142;19;20002;-79
2023/04/02 05:17:03;;;;;;;5.00;2.42;;;;;;;;;;7359598;19;19995;-77
2023/04/02 05:19:38;;;;;;;4.47;2.10;;;;;;;;;;7354378;19;19999;-79
2023/04/02 05:22:20;;;;;;;4.15;2.10;;;;;;;;;;7356042;19;20309;-76
2023/04/02 05:24:51;;;;;;;3.78;1.80;;;;;;;;;;7358077;19;20453;-79
2023/04/02 05:27:28;;;;;;;5.18;2.00;;;;;;;;;;7356111;19;19999;-78
2023/04/02 05:30:07;;;;;;;4.65;2.17;;;;;;;;;;7356773;19;20094;-80
2023/04/02 05:32:34;;;;;;;3.88;1.77;;;;;;;;;;7356224;19;20002;-80
2023/04/02 05:35:03;;;;;;;3.67;1.70;;;;;;;;;;7353378;19;20472;-78
2023/04/02 05:37:29;;;;;;;4.55;1.80;;;;;;;;;;7357979;19;20477;-81
2023/04/02 05:39:56;;;;;;;3.47;1.80;;;;;;;;;;7359055;19;20482;-78
2023/04/02 05:42:26;;;;;;;3.85;1.90;;;;;;;;;;7358844;19;20022;-81
2023/04/02 05:45:10;;;;;;;3.60;1.70;;;;;;;;;;7354146;19;20361;-80
2023/04/02 05:47:39;;;;;;;4.05;1.85;;;;;;;;;;7354996;19;20587;-78
2023/04/02 05:50:08;;;;;;;5.07;2.35;;;;;;;;;;7356097;19;20075;-77
2023/04/02 05:52:36;;;;;;;4.47;2.00;;;;;;;;;;7357537;19;19998;-77
2023/04/02 05:55:21;;;;;;;4.30;2.20;;;;;;;;;;7358435;19;20015;-79
2023/04/02 05:57:49;;;;;;;4.22;2.03;;;;;;;;;;7356791;19;20002;-77
2023/04/02 06:00:16;;;;;;;4.18;2.05;;;;;;;;;;7354065;19;20007;-80
2023/04/02 06:02:43;;;;;;;3.75;1.98;;;;;;;;;;7350737;19;20053;-80
2023/04/02 06:05:14;;;;;;;4.03;2.00;;;;;;;;;;7353201;19;20340;-77
2023/04/02 06:07:39;;;;;;;4.53;2.08;;;;;;;;;;7353093;19;20130;-79
2023/04/02 06:10:22;;;;;;;3.80;1.90;;;;;;;;;;7356496;19;20114;-77
2023/04/02 06:12:50;;;;;;;4.10;2.10;;;;;;;;;;7349387;19;20336;-81
2023/04/02 06:15:16;;;;;;;4.03;2.15;;;;;;;;;;7365817;19;20042;-78
2023/04/02 06:17:45;;;;;;;4.35;1.90;;;;;;;;;;7361938;19;20440;-77
2023/04/02 06:20:13;;;;;;;3.83;1.77;;;;;;;;;;7353395;19;20023;-78
2023/04/02 06:22:40;;;;;;;3.55;1.75;;;;;;;;;;7355162;19;19995;-78
2023/04/02 06:25:14;;;;;;;3.50;1.67;;;;;;;;;;7357865;19;19998;-78
2023/04/02 06:27:41;;;;;;;3.63;1.67;;;;;;;;;;7354292;19;20001;-79
2023/04/02 06:30:12;;;;;;;4.43;1.98;;;;;;;;;;7356086;19;20029;-78
2023/04/02 06:32:38;;;;;;;3.55;1.80;;;;;;;;;;7352083;19;20011;-79
2023/04/02 06:35:03;;;;;;;3.42;1.60;;;;;;;;;;7351726;19;20092;-78
2023/04/02 06:37:31;;;;;;;3.90;1.80;;;;;;;;;;7356109;19;20494;-80
2023/04/02 06:39:57;;;;;;;3.80;1.70;;;;;;;;;;7356329;19;20403;-82
2023/04/02 06:42:27;;;;;;;4.60;1.83;;;;;;;;;;7358447;19;19998;-76
2023/04/02 06:44:52;;;;;;;5.05;1.88;;;;;;;;;;7370600;19;20029;-77
2023/04/02 06:47:22;;;;;;;3.85;1.77;;;;;;;;;;7370199;19;20021;-78
2023/04/02 06:49:49;;;;;;;3.67;1.85;;;;;;;;;;7367508;19;20082;-81
2023/04/02 06:52:21;;;;;;;3.45;1.88;;;;;;;;;;7369485;19;20451;-78
2023/04/02 06:54:47;;;;;;;3.75;1.85;;;;;;;;;;7370004;19;20019;-76
2023/04/02 06:57:12;;;;;;;4.70;1.58;;;;;;;;;;7370492;19;19999;-76
2023/04/02 06:59:37;;;;;;;4.10;1.90;;;;;;;;;;7365294;19;20083;-82
2023/04/02 07:02:26;;;;;;;8.75;2.15;;;;;;;;;;7366568;19;20573;-78
2023/04/02 07:04:51;;;;;;;3.80;1.90;;;;;;;;;;7367988;19;20058;-81
2023/04/02 07:07:16;;;;;;;6.95;3.75;;;;;;;;;;7355827;19;20399;-78
2023/04/02 07:09:41;;;;;;;7.90;3.13;;;;;;;;;;7369476;19;20462;-79
2023/04/02 07:12:10;;;;;;;5.53;2.95;;;;;;;;;;7370342;19;20095;-81
2023/04/02 07:14:35;;;;;;;5.32;2.20;;;;;;;;;;7363917;19;20473;-78
2023/04/02 07:17:01;;;;;;;3.83;1.97;;;;;;;;;;7368216;19;19999;-78
2023/04/02 07:19:26;;;;;;;5.20;2.47;;;;;;;;;;7370456;19;20262;-80
2023/04/02 07:21:51;;;;;;;3.53;1.83;;;;;;;;;;7367971;19;20006;-78
2023/04/02 07:24:16;;;;;;;3.70;1.67;;;;;;;;;;7368467;19;20236;-77
2023/04/02 07:26:42;;;;;;;3.40;1.60;;;;;;;;;;7368125;19;20247;-78
2023/04/02 07:29:07;;;;;;;3.75;1.95;;;;;;;;;;7369137;19;20848;-78
2023/04/02 07:31:33;;;;;;;3.58;1.67;;;;;;;;;;7361705;19;20010;-77
2023/04/02 07:33:58;;;;;;;3.83;2.00;;;;;;;;;;7364822;19;20438;-80
2023/04/02 07:36:25;;;;;;;4.68;1.95;;;;;;;;;;7336517;19;20314;-77
2023/04/02 07:38:50;;;;;;;3.47;1.52;;;;;;;;;;7351257;19;19999;-79
2023/04/02 07:41:16;;;;;;;3.15;1.40;;;;;;;;;;7355885;19;20017;-79
2023/04/02 07:43:41;;;;;;;3.08;1.42;;;;;;;;;;7346831;19;20002;-81
2023/04/02 07:46:07;;;;;;;2.55;1.10;;;;;;;;;;7354484;19;20029;-79
2023/04/02 07:48:33;;;;;;;3.25;1.15;;;;;;;;;;7351223;19;20015;-78
2023/04/02 07:50:59;;;;;;;2.28;1.15;;;;;;;;;;7350786;19;20037;-81
2023/04/02 07:53:30;;;;;;;3.20;1.30;;;;;;;;;;7352647;19;20005;-77
2023/04/02 07:55:56;;;;;;;3.88;1.42;;;;;;;;;;7352721;19;20029;-80
2023/04/02 07:58:21;;;;;;;3.58;1.30;;;;;;;;;;7350092;19;20002;-82
2023/04/02 08:00:46;;;;;;;1.85;1.00;;;;;;;;;;7348777;19;20052;-79
2023/04/02 08:03:12;;;;;;;2.70;1.07;;;;;;;;;;7347672;19;19995;-78
2023/04/02 08:05:37;;;;;;;3.75;1.38;;;;;;;;;;7347594;19;20570;-81
2023/04/02 08:08:02;;;;;;;2.83;1.15;;;;;;;;;;7352872;19;20627;-77
2023/04/02 08:10:27;;;;;;;4.07;1.45;;;;;;;;;;7354226;19;20006;-78
2023/04/02 08:12:52;;;;;;;2.88;1.17;;;;;;;;;;7351720;19;20368;-79
2023/04/02 08:15:18;;;;;;;5.50;1.70;;;;;;;;;;7352902;19;20124;-77
2023/04/02 08:17:43;;;;;;;2.70;1.27;;;;;;;;;;7348835;19;20256;-78
2023/04/02 08:20:13;;;;;;;3.10;1.30;;;;;;;;;;7352624;19;20750;-78
2023/04/02 08:22:38;;;;;;;2.33;1.10;;;;;;;;;;7347994;19;20005;-78
2023/04/02 08:25:04;;;;;;;2.23;1.10;;;;;;;;;;7351701;19;20002;-77
2023/04/02 08:27:29;;;;;;;3.30;1.30;;;;;;;;;;7350634;19;20350;-78
2023/04/02 08:29:54;;;;;;;3.28;1.38;;;;;;;;;;7354154;19;20003;-79
2023/04/02 08:32:20;;;;;;;3.17;1.40;;;;;;;;;;7351802;19;20574;-79
2023/04/02 08:34:46;;;;;;;3.67;1.58;;;;;;;;;;7351547;19;20339;-78
2023/04/02 08:37:11;;;;;;;3.23;1.70;;;;;;;;;;7338187;19;20272;-77
2023/04/02 08:39:36;;;;;;;4.60;2.40;;;;;;;;;;7348416;19;20251;-76
2023/04/02 08:42:05;;;;;;;3.63;1.50;;;;;;;;;;7353178;19;20007;-79
2023/04/02 08:44:42;;;;;;;3.15;1.40;;;;;;;;;;7351126;19;20003;-78
2023/04/02 08:47:08;;;;;;;3.22;1.58;;;;;;;;;;7357970;19;20466;-78
2023/04/02 08:49:36;;;;;;;3.55;1.60;;;;;;;;;;7361691;19;20391;-76
2023/04/02 08:52:01;;;;;;;4.32;1.70;;;;;;;;;;7355920;19;20451;-79
2023/04/02 08:54:30;;;;;;;3.25;1.52;;;;;;;;;;7353501;19;20035;-80
2023/04/02 08:57:17;;;;;;;4.65;2.00;;;;;;;;;;7361610;19;20467;-75
2023/04/02 08:59:43;;;;;;;4.35;1.85;;;;;;;;;;7360804;19;20376;-78
2023/04/02 09:02:26;;;;;;;4.13;2.13;;;;;;;;;;7356450;19;19999;-77
2023/04/02 09:04:52;;;;;;;5.43;2.50;;;;;;;;;;7354935;19;19998;-78
2023/04/02 09:07:17;;;;;;;4.50;2.10;;;;;;;;;;7356393;19;20026;-77
2023/04/02 09:09:45;;;;;;;3.92;1.92;;;;;;;;;;7356912;19;19999;-80
2023/04/02 09:12:17;;;;;;;4.63;2.25;;;;;;;;;;7359790;19;20046;-75
2023/04/02 09:14:55;;;;;;;4.70;2.30;;;;;;;;;;7358481;19;20531;-79
2023/04/02 09:17:24;;;;;;;4.15;2.10;;;;;;;;;;7359468;19;20002;-78
2023/04/02 09:19:54;;;;;;;4.50;2.20;;;;;;;;;;7352051;19;20086;-81
2023/04/02 09:22:21;;;;;;;6.18;1.83;;;;;;;;;;7359731;19;20010;-80
2023/04/02 09:24:50;;;;;;;4.50;2.08;;;;;;;;;;7356468;19;20061;-78
2023/04/02 09:27:17;;;;;;;4.20;1.88;;;;;;;;;;7356304;19;20111;-79
2023/04/02 09:29:44;;;;;;;4.28;2.00;;;;;;;;;;7355972;19;20296;-78
2023/04/02 09:32:24;;;;;;;4.13;1.98;;;;;;;;;;7352097;19;20009;-77
2023/04/02 09:34:49;;;;;;;4.00;2.13;;;;;;;;;;7354576;19;20026;-81
2023/04/02 09:37:14;;;;;;;7.07;3.78;;;;;;;;;;7356857;19;20041;-77
2023/04/02 09:39:39;;;;;;;4.38;2.40;;;;;;;;;;7355973;19;20045;-76
2023/04/02 09:42:06;;;;;;;4.13;2.35;;;;;;;;;;7358777;19;20020;-77
2023/04/02 09:44:32;;;;;;;4.75;2.38;;;;;;;;;;7355177;19;20016;-79
2023/04/02 09:47:05;;;;;;;4.82;2.70;;;;;;;;;;7357014;19;20020;-81
2023/04/02 09:49:31;;;;;;;5.80;2.80;;;;;;;;;;7359150;19;20066;-77
2023/04/02 09:52:23;;;;;;;4.22;2.38;;;;;;;;;;7355797;19;20259;-80
2023/04/02 09:55:04;;;;;;;4.28;2.40;;;;;;;;;;7355832;19;20013;-80
2023/04/02 09:57:32;;;;;;;5.05;2.78;;;;;;;;;;7353968;19;20518;-77
2023/04/02 10:00:12;;;;;;;4.55;2.47;;;;;;;;;;7351894;19;20385;-79
2023/04/02 10:02:38;;;;;;;5.00;2.80;;;;;;;;;;7353906;19;20074;-76
2023/04/02 10:05:05;;;;;;;4.50;2.50;;;;;;;;;;7354350;19;20075;-77
2023/04/02 10:07:49;;;;;;;4.65;2.50;;;;;;;;;;7358281;19;20640;-78
2023/04/02 10:10:18;;;;;;;4.85;2.72;;;;;;;;;;7356650;19;20569;-79
2023/04/02 10:12:45;;;;;;;5.10;2.97;;;;;;;;;;7357711;19;20003;-77
2023/04/02 10:15:15;;;;;;;4.95;2.72;;;;;;;;;;7358941;19;20419;-77
2023/04/02 10:17:41;;;;;;;4.63;2.67;;;;;;;;;;7358488;19;20003;-82
2023/04/02 10:20:13;;;;;;;6.47;3.22;;;;;;;;;;7354315;19;20930;-77
2023/04/02 10:22:39;;;;;;;5.25;2.83;;;;;;;;;;7361026;19;20059;-82
2023/04/02 10:25:11;;;;;;;5.30;3.22;;;;;;;;;;7354083;19;20448;-78
2023/04/02 10:27:43;;;;;;;5.13;3.03;;;;;;;;;;7355243;19;20014;-79
2023/04/02 10:30:19;;;;;;;5.80;3.15;;;;;;;;;;7358069;19;20424;-78
2023/04/02 10:32:44;;;;;;;10.85;3.15;;;;;;;;;;7366355;19;20043;-79
2023/04/02 10:35:15;;;;;;;5.45;3.30;;;;;;;;;;7345991;19;20020;-77
2023/04/02 10:37:43;;;;;;;5.95;3.33;;;;;;;;;;7353442;19;20095;-78
2023/04/02 10:40:26;;;;;;;6.53;3.30;;;;;;;;;;7356393;19;20010;-78
2023/04/02 10:43:11;;;;;;;5.45;3.38;;;;;;;;;;7354271;19;20062;-81
2023/04/02 10:45:43;;;;;;;6.90;4.07;;;;;;;;;;7351398;19;19999;-77
2023/04/02 10:48:27;;;;;;;6.50;3.72;;;;;;;;;;7356661;19;20714;-76
2023/04/02 10:51:11;;;;;;;6.18;3.65;;;;;;;;;;7358468;19;20349;-77
2023/04/02 10:53:39;;;;;;;6.80;4.38;;;;;;;;;;7366693;19;20002;-81
2023/04/02 10:56:08;;;;;;;5.65;3.58;;;;;;;;;;7372041;19;20014;-76
2023/04/02 10:58:37;;;;;;;7.80;5.22;;;;;;;;;;7371398;19;20436;-78
2023/04/02 11:01:06;;;;;;;8.50;5.22;;;;;;;;;;7359980;19;20014;-77
2023/04/02 11:03:35;;;;;;;7.97;5.53;;;;;;;;;;7366612;19;20014;-79
2023/04/02 11:06:03;;;;;;;6.88;4.90;;;;;;;;;;7366196;19;20318;-78
2023/04/02 11:08:42;;;;;;;6.60;4.53;;;;;;;;;;7366366;19;20042;-77
2023/04/02 11:11:13;;;;;;;6.55;4.82;;;;;;;;;;7369390;19;20103;-79
2023/04/02 11:13:53;;;;;;;6.63;4.40;;;;;;;;;;7368386;19;20457;-77
2023/04/02 11:16:19;;;;;;;8.23;5.57;;;;;;;;;;7367617;19;20007;-76
2023/04/02 11:19:04;;;;;;;7.03;4.70;;;;;;;;;;7371002;19;20312;-77
2023/04/02 11:21:29;;;;;;;7.18;5.10;;;;;;;;;;7369117;19;20006;-77
2023/04/02 11:23:59;;;;;;;7.50;5.60;;;;;;;;;;7367410;19;20316;-78
2023/04/02 11:26:33;;;;;;;7.43;5.25;;;;;;;;;;7365215;19;20111;-79
2023/04/02 11:29:13;;;;;;;7.68;5.78;;;;;;;;;;7367189;19;20079;-77
2023/04/02 11:31:39;;;;;;;9.68;7.40;;;;;;;;;;7367700;19;20010;-77
2023/04/02 11:34:04;;;;;;;7.38;5.57;;;;;;;;;;7368508;19;20668;-76
2023/04/02 11:36:48;;;;;;;7.35;5.80;;;;;;;;;;7340938;19;20118;-81
2023/04/02 11:39:13;;;;;;;;;;;;;;;;;;7350392;19;19999;-79
2023/04/02 11:41:57;;;;;;;8.02;5.60;;;;;;;;;;7357812;19;19929;-78
2023/04/02 11:44:23;;;;;;;6.55;5.03;;;;;;;;;;7365867;19;20037;-78
2023/04/02 11:46:49;;;;;;;7.95;5.78;;;;;;;;;;7366038;19;20109;-76
2023/04/02 11:49:38;;;;;;;8.25;5.72;;;;;;;;;;7367232;19;20010;-77
2023/04/02 11:52:10;;;;;;;9.15;6.35;;;;;;;;;;7365388;19;20130;-76
2023/04/02 11:54:36;;;;;;;9.82;6.75;;;;;;;;;;7366391;19;20438;-77
2023/04/02 11:57:29;;;;;;;12.55;8.10;;;;;;;;;;7366673;19;20313;-76
2023/04/02 12:00:13;;;;;;;9.95;7.70;;;;;;;;;;7362250;19;20522;-76
2023/04/02 12:02:49;;;;;;;10.60;8.05;;;;;;;;;;7363602;19;20835;-80
2023/04/02 12:05:19;;;;;;;11.30;8.35;;;;;;;;;;7358923;19;20009;-76
2023/04/02 12:08:03;;;;;;;11.68;8.90;;;;;;;;;;7365461;19;20023;-77
2023/04/02 12:10:52;;;;;;;13.45;9.93;;;;;;;;;;7368304;19;20003;-76
2023/04/02 12:13:37;;;;;;;14.15;10.75;;;;;;;;;;7365188;19;20482;-76
2023/04/02 12:16:02;;;;;;;15.90;11.15;;;;;;;;;;7364159;19;20022;-78
2023/04/02 12:18:28;;;;;;;16.15;11.88;;;;;;;;;;7369468;19;20377;-81
2023/04/02 12:20:55;;;;;;;17.08;13.20;;;;;;;;;;7363359;19;20002;-78
2023/04/02 12:23:30;;;;;;;16.10;12.60;;;;;;;;;;7376931;19;19994;-76
2023/04/02 12:26:06;;;;;;;17.15;13.63;;;;;;;;;;7374571;19;20440;-76
2023/04/02 12:28:32;;;;;;;21.17;16.38;;;;;;;;;;7369278;19;20029;-81
2023/04/02 12:31:07;;;;;;;19.48;14.57;;;;;;;;;;7370975;19;20375;-78
2023/04/02 12:33:36;;;;;;;17.40;14.05;;;;;;;;;;7374013;19;20785;-79
2023/04/02 12:36:01;;;;;;;17.48;13.82;;;;;;;;;;7370802;19;20003;-76
2023/04/02 12:38:32;;;;;;;17.52;13.98;;;;;;;;;;7372253;19;20006;-77
2023/04/02 12:40:58;;;;;;;21.25;14.10;;;;;;;;;;7371649;19;20005;-75
2023/04/02 12:43:24;;;;;;;18.75;14.45;;;;;;;;;;7374913;19;20010;-75
2023/04/02 12:45:50;;;;;;;22.35;14.98;;;;;;;;;;7368780;19;20094;-75
2023/04/02 12:48:16;;;;;;;22.15;16.80;;;;;;;;;;7370878;19;20007;-77
2023/04/02 12:50:41;;;;;;;19.95;15.93;;;;;;;;;;7371085;19;20112;-78
2023/04/02 12:53:17;;;;;;;22.55;17.75;;;;;;;;;;7372432;19;20365;-77
2023/04/02 12:55:45;;;;;;;22.90;16.92;;;;;;;;;;7370831;19;20073;-81
2023/04/02 12:58:30;;;;;;;22.77;18.98;;;;;;;;;;7372424;19;19999;-77
2023/04/02 13:01:12;;;;;;;21.42;17.27;;;;;;;;;;7372935;19;20183;-77
2023/04/02 13:03:37;;;;;;;23.45;17.77;;;;;;;;;;7373337;19;20111;-77
2023/04/02 13:06:03;;;;;;;21.97;17.13;;;;;;;;;;7369612;19;20040;-80
2023/04/02 13:08:36;;;;;;;21.75;17.05;;;;;;;;;;7368400;19;20262;-77
2023/04/02 13:11:02;;;;;;;23.50;18.15;;;;;;;;;;7372937;19;20006;-78
2023/04/02 13:13:38;;;;;;;24.85;17.80;;;;;;;;;;7374977;19;19991;-76
2023/04/02 13:16:05;;;;;;;21.67;17.65;;;;;;;;;;7370196;19;20022;-79
2023/04/02 13:18:31;;;;;;;26.17;18.65;;;;;;;;;;7374344;19;20011;-76
2023/04/02 13:21:01;;;;;;;25.40;19.05;;;;;;;;;;7356401;19;20009;-76
2023/04/02 13:23:30;;;;;;;28.58;19.45;;;;;;;;;;7374456;19;20308;-76
2023/04/02 13:25:56;;;;;;;24.40;19.23;;;;;;;;;;7371726;19;20022;-76
2023/04/02 13:28:21;;;;;;;23.73;19.33;;;;;;;;;;7373333;19;20002;-76
2023/04/02 13:30:46;;;;;;;21.98;19.00;;;;;;;;;;7370418;19;20570;-76
2023/04/02 13:33:12;;;;;;;25.52;19.75;;;;;;;;;;7374636;19;20083;-78
2023/04/02 13:35:37;;;;;;;26.80;20.02;;;;;;;;;;7372260;19;20003;-78
2023/04/02 13:38:04;;;;;;;25.63;20.63;;;;;;;;;;7371983;19;20031;-77
2023/04/02 13:40:30;;;;;;;28.15;21.05;;;;;;;;;;7371143;19;20210;-77
2023/04/02 13:42:55;;;;;;;28.83;21.63;;;;;;;;;;7371254;19;20075;-76
2023/04/02 13:45:27;;;;;;;26.55;20.45;;;;;;;;;;7369472;19;20578;-78
2023/04/02 13:47:53;;;;;;;24.35;20.23;;;;;;;;;;7370103;19;19999;-76
2023/04/02 13:50:22;;;;;;;24.92;19.75;;;;;;;;;;7368687;19;20021;-77
2023/04/02 13:52:49;;;;;;;24.77;19.70;;;;;;;;;;7368475;19;20139;-76
2023/04/02 13:55:14;;;;;;;26.77;21.20;;;;;;;;;;7372992;19;20019;-75
2023/04/02 13:57:40;;;;;;;24.08;20.42;;;;;;;;;;7373847;19;19999;-77
2023/04/02 14:00:05;;;;;;;24.45;20.60;;;;;;;;;;7367800;19;20446;-76
2023/04/02 14:02:31;;;;;;;30.10;22.60;;;;;;;;;;7372005;19;20006;-76
2023/04/02 14:05:12;;;;;;;30.73;25.30;;;;;;;;;;7369261;19;20439;-77
2023/04/02 14:07:52;;;;;;;30.10;24.95;;;;;;;;;;7373137;19;20022;-78
2023/04/02 14:10:26;;;;;;;25.15;22.45;;;;;;;;;;7371115;19;20003;-76
2023/04/02 14:13:07;;;;;;;29.33;23.60;;;;;;;;;;7370784;19;20007;-76
2023/04/02 14:15:39;;;;;;;27.00;22.88;;;;;;;;;;7373437;19;20375;-76
2023/04/02 14:18:11;;;;;;;26.27;22.63;;;;;;;;;;7371180;19;20014;-76
2023/04/02 14:20:55;;;;;;;29.95;24.23;;;;;;;;;;7370769;19;20319;-76
2023/04/02 14:23:20;;;;;;;;;;;;;;;;;;7373136;19;19999;-76
2023/04/02 14:25:48;;;;;;;27.53;24.17;;;;;;;;;;7367576;19;20021;-76
2023/04/02 14:28:26;;;;;;;27.45;24.05;;;;;;;;;;7371282;19;20259;-77
2023/04/02 14:30:54;;;;;;;29.65;25.42;;;;;;;;;;7367136;19;20074;-78
2023/04/02 14:33:25;;;;;;;30.30;26.50;;;;;;;;;;7373388;19;20005;-76
2023/04/02 14:35:54;;;;;;;28.77;24.67;;;;;;;;;;7368555;19;20031;-78
2023/04/02 14:38:23;;;;;;;32.55;27.20;;;;;;;;;;7371207;19;20014;-75
2023/04/02 14:40:54;;;;;;;29.50;25.50;;;;;;;;;;7368960;19;20018;-76
2023/04/02 14:43:26;;;;;;;30.42;24.58;;;;;;;;;;7370227;19;20002;-76
2023/04/02 14:45:57;;;;;;;30.50;25.42;;;;;;;;;;7367165;19;20005;-78
2023/04/02 14:48:28;;;;;;;31.58;27.63;;;;;;;;;;7370517;19;20037;-75
2023/04/02 14:51:03;;;;;;;37.28;29.48;;;;;;;;;;7367152;19;20018;-77
2023/04/02 14:53:36;;;;;;;35.45;29.50;;;;;;;;;;7371077;19;20066;-78
2023/04/02 14:56:02;;;;;;;34.77;28.63;;;;;;;;;;7371074;19;20005;-78
2023/04/02 14:58:31;;;;;;;36.72;31.40;;;;;;;;;;7369226;19;20436;-77